Time;durP1;ratioP1;P1;durP2;ratioP2;P2;SDS_P1;SDS_P2;PMS_P1;PMS_P2;Temp;Humidity;BMP_temperature;BMP_pressure;BME280_temperature;BME280_humidity;BME280_pressure;Samples;Min_cycle;Max_cycle;Signal;HPM_P1;HPM_P2
2022/03/27 00:00:07;;;;;;;33.70;19.00;;;;;;;5.60;73.37;99959.29;107997;1280;22691;-69
2022/03/27 00:02:34;;;;;;;29.30;17.70;;;;;;;5.56;73.19;99962.66;108040;1279;24333;-69
2022/03/27 00:05:01;;;;;;;29.70;17.60;;;;;;;5.50;72.94;99963.31;108007;1279;22692;-69
2022/03/27 00:07:28;;;;;;;29.30;15.80;;;;;;;5.47;72.49;99963.55;107999;1279;22524;-69
2022/03/27 00:09:55;;;;;;;33.00;14.70;;;;;;;5.41;72.24;99967.17;108014;1279;22522;-68
2022/03/27 00:12:22;;;;;;;24.00;12.40;;;;;;;5.30;71.17;99970.52;107990;1280;22683;-71
2022/03/27 00:14:49;;;;;;;17.50;9.20;;;;;;;5.22;70.55;99970.34;107997;1279;25528;-72
2022/03/27 00:17:18;;;;;;;16.20;8.90;;;;;;;5.10;68.40;99972.19;108000;1279;22538;-72
2022/03/27 00:19:45;;;;;;;19.20;9.60;;;;;;;5.00;68.53;99979.98;108002;1279;24253;-71
2022/03/27 00:22:13;;;;;;;18.40;9.50;;;;;;;4.93;67.87;99987.55;108014;1279;22541;-71
2022/03/27 00:24:40;;;;;;;15.50;8.20;;;;;;;4.84;67.55;99986.17;108020;1279;22563;-72
2022/03/27 00:27:07;;;;;;;15.40;8.10;;;;;;;4.76;66.65;99991.52;107992;1279;22699;-69
2022/03/27 00:29:34;;;;;;;15.80;8.00;;;;;;;4.66;65.26;99990.37;108017;1280;22537;-72
2022/03/27 00:32:01;;;;;;;16.70;6.80;;;;;;;4.57;65.67;99989.67;108003;1280;22550;-69
2022/03/27 00:34:28;;;;;;;18.00;8.10;;;;;;;4.47;65.00;99994.17;108002;1279;22556;-69
2022/03/27 00:36:55;;;;;;;18.40;8.00;;;;;;;4.38;63.27;99992.43;108258;1279;24261;-72
2022/03/27 00:39:23;;;;;;;20.00;8.50;;;;;;;4.33;64.23;99997.70;108296;1279;22538;-73
2022/03/27 00:41:51;;;;;;;19.10;8.40;;;;;;;4.26;64.49;100001.30;108318;1279;22555;-71
2022/03/27 00:44:18;;;;;;;18.60;8.90;;;;;;;4.17;63.58;99998.70;108289;1279;22540;-72
2022/03/27 00:46:45;;;;;;;16.10;7.40;;;;;;;4.09;63.61;100000.72;108290;1279;22563;-71
2022/03/27 00:49:13;;;;;;;17.10;6.60;;;;;;;4.02;63.29;100004.64;108288;1279;22540;-72
2022/03/27 00:51:39;;;;;;;32.90;13.00;;;;;;;3.94;62.76;100005.97;108288;1279;22552;-72
2022/03/27 00:54:07;;;;;;;21.70;9.60;;;;;;;3.88;62.70;100004.70;108280;1279;25256;-71
2022/03/27 00:56:34;;;;;;;21.60;9.30;;;;;;;3.80;62.53;100004.83;108302;1279;22553;-71
2022/03/27 00:59:01;;;;;;;22.10;9.80;;;;;;;3.72;62.33;100001.52;108310;1279;22564;-71
2022/03/27 01:01:38;;;;;;;23.40;9.90;;;;;;;3.62;61.72;100004.59;108311;1279;24235;-71
2022/03/27 01:04:07;;;;;;;31.60;11.60;;;;;;;3.55;61.64;100005.90;108321;1279;22623;-71
2022/03/27 01:06:41;;;;;;;35.00;13.00;;;;;;;3.49;61.35;100001.88;108294;1279;22560;-71
2022/03/27 01:12:21;;;;;;;;;;;;;;;3.37;60.97;100009.63;108323;1279;22688;-71
2022/03/27 01:14:49;;;;;;;25.10;9.80;;;;;;;3.29;59.74;100012.83;108277;1279;22538;-71
2022/03/27 01:17:19;;;;;;;23.70;8.60;;;;;;;3.23;59.28;100017.73;108305;1279;24390;-71
2022/03/27 01:19:51;;;;;;;32.40;10.60;;;;;;;3.18;60.25;100014.70;108292;1279;22560;-72
2022/03/27 01:22:19;;;;;;;25.50;9.80;;;;;;;3.15;60.06;100021.79;108294;1279;22557;-74
2022/03/27 01:24:48;;;;;;;21.00;7.90;;;;;;;3.10;58.96;100025.14;108302;1279;22574;-72
2022/03/27 01:27:15;;;;;;;24.10;10.20;;;;;;;3.05;58.98;100030.55;108267;1279;23226;-71
2022/03/27 01:29:48;;;;;;;22.80;8.50;;;;;;;2.98;58.89;100038.02;108293;1279;22555;-72
2022/03/27 01:32:19;;;;;;;20.90;8.40;;;;;;;2.93;59.16;100034.83;108272;1279;22588;-71
2022/03/27 01:34:47;;;;;;;21.10;7.70;;;;;;;2.88;59.01;100038.13;108321;1279;22540;-72
2022/03/27 01:37:15;;;;;;;14.40;6.10;;;;;;;2.84;58.54;100034.77;108286;1279;22724;-71
2022/03/27 01:39:43;;;;;;;15.80;6.00;;;;;;;2.79;57.95;100032.73;108293;1279;22536;-71
2022/03/27 01:42:10;;;;;;;14.40;5.30;;;;;;;2.74;58.31;100037.61;108292;1279;22559;-72
2022/03/27 01:44:40;;;;;;;10.80;4.40;;;;;;;2.69;57.41;100040.42;108280;1279;26881;-72
2022/03/27 01:47:08;;;;;;;10.50;3.80;;;;;;;2.62;57.80;100046.16;108300;1279;22639;-71
2022/03/27 01:49:40;;;;;;;12.50;4.50;;;;;;;2.57;58.02;100047.78;108299;1279;22629;-71
2022/03/27 01:52:10;;;;;;;14.00;5.30;;;;;;;2.53;58.07;100046.43;108303;1279;22583;-75
2022/03/27 01:54:37;;;;;;;21.60;8.10;;;;;;;2.50;57.89;100053.02;108267;1279;22582;-71
2022/03/27 01:57:04;;;;;;;23.20;8.50;;;;;;;2.45;57.72;100047.89;108033;1279;331635;-71
2022/03/27 01:59:33;;;;;;;16.70;5.60;;;;;;;2.41;57.59;100048.98;108284;1279;22565;-72
2022/03/27 02:02:00;;;;;;;10.30;3.70;;;;;;;2.35;56.67;100050.40;108275;1279;22705;-78
2022/03/27 02:04:27;;;;;;;10.50;4.10;;;;;;;2.28;56.60;100052.02;108283;1279;22643;-71
2022/03/27 02:06:54;;;;;;;9.00;3.50;;;;;;;2.22;57.13;100049.66;108293;1279;22573;-79
2022/03/27 02:09:21;;;;;;;18.00;4.70;;;;;;;2.18;57.01;100051.41;108286;1279;22560;-79
2022/03/27 02:11:48;;;;;;;26.50;6.20;;;;;;;2.12;56.84;100055.60;108281;1279;22536;-78
2022/03/27 02:14:15;;;;;;;42.60;7.70;;;;;;;2.08;56.78;100060.61;108276;1279;22546;-71
2022/03/27 02:16:42;;;;;;;26.00;5.60;;;;;;;2.02;55.97;100063.77;108288;1279;22568;-72
2022/03/27 02:19:11;;;;;;;15.60;4.20;;;;;;;1.97;56.11;100059.66;108275;1279;22546;-71
2022/03/27 02:21:39;;;;;;;12.50;3.10;;;;;;;1.92;56.44;100057.65;108282;1279;24419;-72
2022/03/27 02:24:08;;;;;;;9.00;2.90;;;;;;;1.87;56.27;100062.15;108267;1279;22631;-71
2022/03/27 02:26:35;;;;;;;13.20;3.90;;;;;;;1.82;56.23;100064.59;108298;1279;27498;-71
2022/03/27 02:29:02;;;;;;;13.20;4.30;;;;;;;1.79;56.22;100070.46;108280;1279;22646;-71
2022/03/27 02:31:29;;;;;;;12.70;4.40;;;;;;;1.76;56.25;100074.77;108271;1279;22620;-71
2022/03/27 02:33:56;;;;;;;14.10;5.30;;;;;;;1.74;56.38;100073.92;108287;1279;22565;-71
2022/03/27 02:36:23;;;;;;;11.60;4.60;;;;;;;1.71;56.23;100074.11;108284;1279;25303;-71
2022/03/27 02:38:50;;;;;;;17.70;6.40;;;;;;;1.66;56.13;100075.70;108262;1279;22564;-71
2022/03/27 02:41:17;;;;;;;17.60;6.00;;;;;;;1.62;56.35;100070.55;108308;1279;22759;-72
2022/03/27 02:43:44;;;;;;;14.90;4.90;;;;;;;1.57;56.30;100068.02;108304;1279;22711;-72
2022/03/27 02:46:11;;;;;;;13.30;4.50;;;;;;;1.52;56.32;100070.98;108268;1279;24251;-71
2022/03/27 02:48:38;;;;;;;13.20;4.50;;;;;;;1.48;56.36;100073.73;108290;1279;22554;-71
2022/03/27 02:51:05;;;;;;;13.50;4.90;;;;;;;1.44;56.41;100071.19;108300;1279;22692;-71
2022/03/27 02:53:32;;;;;;;13.40;4.30;;;;;;;1.38;56.54;100066.59;108285;1278;22560;-71
2022/03/27 02:55:59;;;;;;;15.60;5.10;;;;;;;1.32;56.57;100073.33;108295;1279;25273;-71
2022/03/27 02:58:27;;;;;;;15.20;5.60;;;;;;;1.26;56.60;100076.42;108281;1279;22561;-72
2022/03/27 03:00:54;;;;;;;17.00;7.20;;;;;;;1.21;56.53;100076.98;108326;1279;22533;-71
2022/03/27 03:03:21;;;;;;;18.50;7.60;;;;;;;1.16;56.61;100077.34;108297;1279;25560;-73
2022/03/27 03:05:49;;;;;;;17.80;7.00;;;;;;;1.10;56.67;100081.48;108296;1279;25334;-73
2022/03/27 03:08:18;;;;;;;18.90;7.50;;;;;;;1.07;56.63;100080.63;108235;1279;22603;-71
2022/03/27 03:10:45;;;;;;;15.20;5.90;;;;;;;1.01;56.79;100079.96;108036;1279;22559;-71
2022/03/27 03:13:13;;;;;;;13.50;5.10;;;;;;;0.96;56.79;100078.63;107977;1279;22649;-71
2022/03/27 03:15:42;;;;;;;15.10;5.70;;;;;;;0.91;56.86;100082.58;108026;1279;22556;-71
2022/03/27 03:18:11;;;;;;;14.20;5.00;;;;;;;0.87;56.98;100082.59;108010;1279;22666;-69
2022/03/27 03:20:39;;;;;;;13.70;5.20;;;;;;;0.82;57.02;100085.52;108058;1279;22564;-69
2022/03/27 03:23:06;;;;;;;15.20;5.50;;;;;;;0.77;57.10;100076.80;107977;1279;24254;-69
2022/03/27 03:25:33;;;;;;;13.50;5.40;;;;;;;0.71;57.24;100079.04;107993;1279;24088;-69
2022/03/27 03:28:00;;;;;;;16.60;5.00;;;;;;;0.63;57.29;100075.63;108027;1279;22534;-69
2022/03/27 03:30:27;;;;;;;11.90;4.70;;;;;;;0.56;57.36;100082.32;108016;1279;22711;-69
2022/03/27 03:32:54;;;;;;;11.60;4.00;;;;;;;0.48;57.50;100081.13;108004;1279;22591;-72
2022/03/27 03:35:21;;;;;;;13.90;4.30;;;;;;;0.40;57.70;100083.02;107987;1279;22558;-69
2022/03/27 03:37:48;;;;;;;13.40;4.30;;;;;;;0.31;57.84;100084.41;108011;1279;22694;-70
2022/03/27 03:40:15;;;;;;;12.70;4.80;;;;;;;0.24;57.81;100085.61;108023;1279;22563;-69
2022/03/27 03:42:42;;;;;;;14.90;5.40;;;;;;;0.17;58.00;100088.88;108040;1279;25502;-70
2022/03/27 03:45:09;;;;;;;17.50;6.40;;;;;;;0.10;58.04;100091.10;107991;1279;22534;-69
2022/03/27 03:47:37;;;;;;;17.50;6.70;;;;;;;0.03;58.18;100090.74;108018;1279;22565;-69
2022/03/27 03:50:05;;;;;;;22.60;9.40;;;;;;;-0.05;58.01;100092.45;108022;1279;22566;-69
2022/03/27 03:52:32;;;;;;;25.00;12.10;;;;;;;-0.11;58.28;100090.41;108010;1279;25363;-69
2022/03/27 03:54:59;;;;;;;33.60;14.50;;;;;;;-0.16;58.41;100095.70;108030;1279;22703;-69
2022/03/27 03:57:26;;;;;;;38.10;16.00;;;;;;;-0.20;58.61;100099.14;108010;1279;22580;-69
2022/03/27 03:59:53;;;;;;;35.10;14.40;;;;;;;-0.23;58.67;100102.20;108026;1279;22698;-70
2022/03/27 04:02:20;;;;;;;25.40;10.60;;;;;;;-0.26;58.61;100100.66;108009;1279;22689;-69
2022/03/27 04:04:47;;;;;;;22.80;10.50;;;;;;;-0.28;58.62;100109.05;108007;1279;22562;-69
2022/03/27 04:07:14;;;;;;;22.90;10.90;;;;;;;-0.28;58.86;100110.77;108003;1279;23423;-71
2022/03/27 04:09:41;;;;;;;21.00;10.40;;;;;;;-0.30;59.03;100109.90;108012;1279;22579;-70
2022/03/27 04:12:09;;;;;;;18.30;9.60;;;;;;;-0.33;58.95;100108.17;108035;1279;23359;-71
2022/03/27 04:14:36;;;;;;;19.00;9.20;;;;;;;-0.37;59.16;100109.20;108052;1279;23354;-70
2022/03/27 04:17:03;;;;;;;17.30;7.70;;;;;;;-0.41;59.00;100113.46;108003;1279;22542;-70
2022/03/27 04:19:31;;;;;;;14.10;8.10;;;;;;;-0.44;58.97;100116.70;108002;1279;22641;-70
2022/03/27 04:21:58;;;;;;;15.10;7.30;;;;;;;-0.48;59.25;100119.78;108024;1279;24295;-71
2022/03/27 04:24:25;;;;;;;16.90;8.00;;;;;;;-0.52;59.28;100128.14;108037;1279;22694;-69
2022/03/27 04:26:52;;;;;;;20.50;8.30;;;;;;;-0.57;59.19;100126.60;108013;1279;24074;-69
2022/03/27 04:29:19;;;;;;;20.50;9.60;;;;;;;-0.62;59.32;100140.45;108016;1279;22706;-69
2022/03/27 04:31:46;;;;;;;21.80;9.30;;;;;;;-0.66;59.55;100138.36;108006;1279;22580;-70
2022/03/27 04:34:14;;;;;;;23.40;9.80;;;;;;;-0.69;59.47;100145.02;107990;1279;22582;-69
2022/03/27 04:36:41;;;;;;;23.50;8.90;;;;;;;-0.68;59.70;100149.99;108036;1279;25020;-69
2022/03/27 04:39:08;;;;;;;23.70;9.50;;;;;;;-0.67;60.64;100154.10;108023;1279;23064;-70
2022/03/27 04:41:36;;;;;;;21.30;8.50;;;;;;;-0.68;61.53;100159.06;108006;1279;22562;-70
2022/03/27 04:44:04;;;;;;;23.00;9.30;;;;;;;-0.70;61.69;100163.15;108002;1279;22641;-70
2022/03/27 04:46:31;;;;;;;30.30;10.50;;;;;;;-0.72;61.50;100171.38;107989;1279;22617;-69
2022/03/27 04:48:59;;;;;;;28.20;11.20;;;;;;;-0.73;61.19;100173.59;108035;1279;22561;-70
2022/03/27 04:51:26;;;;;;;24.90;10.80;;;;;;;-0.73;61.05;100176.33;108048;1279;24291;-70
2022/03/27 04:53:53;;;;;;;31.50;12.10;;;;;;;-0.74;61.11;100174.78;108009;1279;24298;-69
2022/03/27 04:56:20;;;;;;;38.20;16.50;;;;;;;-0.74;60.93;100177.69;107994;1279;22714;-69
2022/03/27 04:58:47;;;;;;;41.80;17.40;;;;;;;-0.74;61.15;100177.00;108032;1279;22631;-70
2022/03/27 05:01:14;;;;;;;42.40;18.30;;;;;;;-0.72;60.82;100184.03;108035;1279;23272;-70
2022/03/27 05:03:42;;;;;;;43.00;18.30;;;;;;;-0.71;60.94;100185.91;108018;1279;24252;-69
2022/03/27 05:06:09;;;;;;;39.40;16.90;;;;;;;-0.68;60.86;100190.54;107995;1279;22573;-69
2022/03/27 05:08:36;;;;;;;38.50;16.40;;;;;;;-0.65;60.88;100191.09;107982;1279;22701;-69
2022/03/27 05:11:03;;;;;;;38.70;16.40;;;;;;;-0.57;61.12;100190.26;108017;1279;23154;-70
2022/03/27 05:13:30;;;;;;;37.20;15.70;;;;;;;-0.48;61.05;100186.02;108027;1279;22658;-70
2022/03/27 05:15:57;;;;;;;34.70;14.90;;;;;;;-0.37;61.07;100179.55;107994;1279;24264;-70
2022/03/27 05:18:24;;;;;;;35.70;15.30;;;;;;;-0.23;61.30;100179.08;108015;1279;22537;-69
2022/03/27 05:20:51;;;;;;;30.80;14.00;;;;;;;-0.04;61.74;100186.15;108002;1279;25290;-70
2022/03/27 05:23:18;;;;;;;25.20;10.70;;;;;;;0.16;62.26;100189.27;108025;1279;22547;-70
2022/03/27 05:25:48;;;;;;;24.80;10.20;;;;;;;0.35;62.49;100190.66;108030;1279;22702;-70
2022/03/27 05:28:15;;;;;;;22.80;9.80;;;;;;;0.57;62.70;100187.92;108023;1279;22550;-70
2022/03/27 05:30:43;;;;;;;26.10;12.60;;;;;;;0.82;62.85;100189.63;108017;1279;24273;-70
2022/03/27 05:33:10;;;;;;;35.30;16.60;;;;;;;1.11;62.76;100188.38;107998;1279;22536;-70
2022/03/27 05:35:38;;;;;;;38.50;17.40;;;;;;;1.41;62.95;100191.89;108039;1279;22575;-70
2022/03/27 05:38:05;;;;;;;41.80;18.60;;;;;;;1.63;63.19;100188.03;108056;1279;25504;-70
2022/03/27 05:40:33;;;;;;;56.10;19.80;;;;;;;1.81;63.03;100191.72;108023;1279;23075;-70
2022/03/27 05:43:00;;;;;;;45.10;18.70;;;;;;;1.97;62.52;100197.46;108007;1279;22556;-70
2022/03/27 05:45:28;;;;;;;30.60;14.70;;;;;;;2.12;61.86;100197.38;108000;1279;22581;-70
2022/03/27 05:47:55;;;;;;;26.70;11.80;;;;;;;2.26;61.15;100206.41;108149;1279;22684;-70
2022/03/27 05:50:22;;;;;;;29.60;11.60;;;;;;;2.36;60.29;100214.94;108020;1279;24230;-79
2022/03/27 05:52:51;;;;;;;31.30;13.40;;;;;;;2.42;59.72;100215.05;108031;1279;22580;-71
2022/03/27 05:55:20;;;;;;;34.40;14.30;;;;;;;2.48;59.09;100220.69;108306;1279;22653;-70
2022/03/27 05:57:47;;;;;;;29.40;13.80;;;;;;;2.54;58.47;100219.44;107977;1279;25375;-70
2022/03/27 06:00:19;;;;;;;40.20;14.50;;;;;;;2.58;57.95;100224.41;108036;1279;22619;-70
2022/03/27 06:02:51;;;;;;;32.40;15.00;;;;;;;2.55;57.66;100229.92;108069;1279;22697;-70
2022/03/27 06:05:22;;;;;;;225.80;77.00;;;;;;;2.54;57.27;100230.61;108041;1279;25104;-70
2022/03/27 06:07:55;;;;;;;58.80;24.40;;;;;;;2.54;56.87;100237.14;108016;1279;22645;-70
2022/03/27 06:10:28;;;;;;;35.70;14.90;;;;;;;2.55;56.65;100236.97;107980;1279;25366;-70
2022/03/27 06:12:56;;;;;;;42.90;14.70;;;;;;;2.55;56.59;100239.55;108014;1279;22544;-70
2022/03/27 06:15:24;;;;;;;73.10;25.50;;;;;;;2.60;56.46;100239.69;108021;1279;22599;-70
2022/03/27 06:17:53;;;;;;;40.60;15.90;;;;;;;2.65;56.09;100240.34;108037;1279;22593;-71
2022/03/27 06:20:22;;;;;;;33.30;12.60;;;;;;;2.68;56.05;100245.64;107998;1279;22626;-70
2022/03/27 06:22:50;;;;;;;33.60;12.50;;;;;;;2.72;55.46;100251.81;108009;1279;22690;-71
2022/03/27 06:25:20;;;;;;;32.40;15.50;;;;;;;2.72;55.31;100253.35;108099;1279;22557;-70
2022/03/27 06:27:48;;;;;;;28.10;11.70;;;;;;;2.72;55.32;100253.70;108051;1279;22566;-70
2022/03/27 06:30:21;;;;;;;32.50;13.10;;;;;;;2.79;55.38;100253.30;108004;1279;24305;-71
2022/03/27 06:32:49;;;;;;;23.90;9.30;;;;;;;2.86;55.39;100248.42;107989;1279;22600;-71
2022/03/27 06:35:16;;;;;;;29.80;11.20;;;;;;;2.92;55.00;100248.90;108055;1279;22574;-70
2022/03/27 06:37:44;;;;;;;29.40;10.70;;;;;;;2.94;54.84;100249.74;108049;1279;22542;-71
2022/03/27 06:40:13;;;;;;;27.00;10.00;;;;;;;2.99;54.96;100252.61;108002;1279;22721;-70
2022/03/27 06:42:42;;;;;;;36.00;14.70;;;;;;;3.08;54.66;100252.19;108154;1279;22620;-70
2022/03/27 06:45:10;;;;;;;34.50;17.80;;;;;;;3.13;54.89;100250.24;107995;1279;22629;-70
2022/03/27 06:47:38;;;;;;;35.60;19.00;;;;;;;3.20;54.54;100258.79;108032;1279;22620;-70
2022/03/27 06:50:07;;;;;;;24.50;11.40;;;;;;;3.29;54.72;100261.63;108465;1279;22608;-70
2022/03/27 06:52:35;;;;;;;20.00;9.00;;;;;;;3.38;54.67;100262.57;108575;1279;23044;-70
2022/03/27 06:55:05;;;;;;;22.60;7.60;;;;;;;3.45;54.36;100263.89;108024;1279;23878;-70
2022/03/27 06:57:33;;;;;;;26.50;14.60;;;;;;;3.52;54.22;100266.90;108086;1279;22624;-70
2022/03/27 07:05:39;;;;;;;27.90;14.20;;;;;;;3.76;54.01;100269.55;108005;1279;22641;-70
2022/03/27 07:08:08;;;;;;;17.90;8.80;;;;;;;3.85;53.78;100265.50;108038;1279;22534;-70
2022/03/27 07:10:37;;;;;;;20.90;8.40;;;;;;;3.96;54.13;100263.63;108008;1279;22537;-70
2022/03/27 07:13:08;;;;;;;20.60;9.60;;;;;;;4.08;53.53;100268.99;108019;1279;22679;-70
2022/03/27 07:15:36;;;;;;;24.20;9.00;;;;;;;4.16;53.09;100268.02;108050;1279;22552;-69
2022/03/27 07:18:05;;;;;;;19.00;8.60;;;;;;;4.27;52.71;100272.02;108012;1279;25461;-70
2022/03/27 07:20:33;;;;;;;21.50;7.40;;;;;;;4.39;52.93;100272.20;108013;1279;24172;-71
2022/03/27 07:23:04;;;;;;;22.50;8.30;;;;;;;4.49;52.30;100273.42;108067;1279;23239;-70
2022/03/27 07:25:35;;;;;;;13.50;6.00;;;;;;;4.57;51.13;100270.90;108034;1279;25240;-70
2022/03/27 07:28:04;;;;;;;11.30;4.90;;;;;;;4.65;49.77;100275.10;108042;1279;22580;-70
2022/03/27 07:30:32;;;;;;;11.80;5.80;;;;;;;4.73;48.74;100274.11;108013;1279;23953;-70
2022/03/27 07:32:59;;;;;;;13.60;5.60;;;;;;;4.80;48.73;100270.55;108086;1279;22763;-70
2022/03/27 07:35:27;;;;;;;12.40;5.20;;;;;;;4.88;49.29;100272.14;108038;1278;22664;-70
2022/03/27 07:37:54;;;;;;;13.90;5.50;;;;;;;4.98;48.51;100269.23;108023;1279;26190;-69
2022/03/27 07:40:21;;;;;;;11.80;5.10;;;;;;;5.04;48.51;100271.01;108009;1279;22560;-69
2022/03/27 07:42:50;;;;;;;14.30;4.90;;;;;;;5.14;48.11;100270.85;107933;1279;22623;-78
2022/03/27 07:45:19;;;;;;;10.90;4.40;;;;;;;5.24;46.63;100272.91;108073;1279;22671;-68
2022/03/27 07:47:50;;;;;;;9.40;3.40;;;;;;;5.33;46.96;100272.58;108099;1279;22552;-76
2022/03/27 07:50:19;;;;;;;10.50;6.40;;;;;;;5.43;46.60;100276.39;107996;1279;22602;-74
2022/03/27 07:52:47;;;;;;;8.80;3.90;;;;;;;5.52;46.65;100276.73;108136;1279;22538;-71
2022/03/27 07:55:16;;;;;;;10.60;3.80;;;;;;;5.56;44.74;100277.17;108301;1278;22638;-69
2022/03/27 07:57:43;;;;;;;11.80;4.20;;;;;;;5.61;43.89;100276.73;108024;1279;22573;-68
2022/03/27 08:00:15;;;;;;;8.10;3.00;;;;;;;5.69;41.89;100277.27;108040;1278;22632;-69
2022/03/27 08:02:43;;;;;;;12.40;5.60;;;;;;;5.75;42.65;100274.38;108035;1279;22556;-69
2022/03/27 08:05:11;;;;;;;10.10;3.60;;;;;;;5.82;42.28;100271.82;108063;1279;22562;-68
2022/03/27 08:07:38;;;;;;;8.70;2.80;;;;;;;5.82;40.15;100270.77;108007;1279;22615;-69
2022/03/27 08:10:07;;;;;;;8.40;3.30;;;;;;;5.78;39.98;100269.83;108231;1279;22632;-70
2022/03/27 08:12:35;;;;;;;10.60;4.30;;;;;;;5.84;40.89;100269.36;108280;1279;25405;-70
2022/03/27 08:15:04;;;;;;;10.10;3.60;;;;;;;5.89;39.69;100266.88;108394;1279;22559;-69
2022/03/27 08:17:31;;;;;;;22.90;15.00;;;;;;;5.91;39.72;100265.80;108019;1279;22558;-67
2022/03/27 08:19:59;;;;;;;18.10;10.80;;;;;;;5.94;39.50;100266.41;108051;1279;25479;-69
2022/03/27 08:22:26;;;;;;;13.00;7.70;;;;;;;5.98;38.63;100272.23;108023;1279;22548;-69
2022/03/27 08:24:54;;;;;;;10.50;4.60;;;;;;;5.98;38.34;100268.08;108094;1279;25288;-69
2022/03/27 08:27:21;;;;;;;7.00;3.10;;;;;;;6.02;39.07;100268.84;108092;1279;22625;-69
2022/03/27 08:29:48;;;;;;;9.50;3.20;;;;;;;6.10;38.69;100269.55;108168;1279;24329;-69
2022/03/27 08:32:17;;;;;;;6.20;2.40;;;;;;;6.20;39.02;100269.69;108329;1279;22557;-69
2022/03/27 08:34:47;;;;;;;8.60;2.20;;;;;;;6.29;37.18;100271.39;108317;1279;22573;-70
2022/03/27 08:37:16;;;;;;;6.40;2.60;;;;;;;6.29;36.57;100276.06;108296;1279;22588;-76
2022/03/27 08:39:47;;;;;;;7.10;3.20;;;;;;;6.28;37.56;100275.38;108313;1279;22538;-74
2022/03/27 08:42:17;;;;;;;6.40;2.60;;;;;;;6.36;37.52;100279.19;108312;1279;22560;-73
2022/03/27 08:44:45;;;;;;;7.20;2.60;;;;;;;6.44;37.24;100277.63;108302;1279;22799;-80
2022/03/27 08:47:23;;;;;;;6.50;2.40;;;;;;;6.50;36.02;100273.52;107965;1279;22752;-74
2022/03/27 08:49:58;;;;;;;5.60;2.10;;;;;;;6.51;35.57;100270.75;108047;1279;22593;-76
2022/03/27 08:52:35;;;;;;;7.90;2.30;;;;;;;6.50;34.32;100266.78;108024;1278;22701;-77
2022/03/27 08:55:12;;;;;;;4.60;1.80;;;;;;;6.53;34.68;100267.04;108019;1279;22561;-70
2022/03/27 08:58:00;;;;;;;5.70;2.90;;;;;;;6.54;34.15;100257.85;108032;1279;22535;-70
2022/03/27 09:00:33;;;;;;;8.40;4.60;;;;;;;6.63;35.39;100258.84;108028;1279;22628;-69
2022/03/27 09:03:02;;;;;;;10.20;4.40;;;;;;;6.69;35.32;100258.20;108018;1279;22558;-69
2022/03/27 09:05:32;;;;;;;6.80;3.50;;;;;;;6.70;34.78;100254.70;108021;1279;22556;-71
2022/03/27 09:08:04;;;;;;;10.70;6.40;;;;;;;6.74;36.03;100255.63;108021;1279;22586;-74
2022/03/27 09:10:31;;;;;;;9.50;2.90;;;;;;;6.81;35.99;100253.55;108038;1278;22708;-77
2022/03/27 09:13:00;;;;;;;5.50;2.70;;;;;;;6.85;35.60;100254.88;108043;1279;24404;-70
2022/03/27 09:15:29;;;;;;;10.80;3.60;;;;;;;6.92;34.59;100250.88;108036;1279;22548;-69
2022/03/27 09:18:11;;;;;;;5.90;2.50;;;;;;;6.96;34.36;100250.95;108009;1279;22563;-74
2022/03/27 09:20:53;;;;;;;7.80;2.70;;;;;;;7.01;33.59;100247.52;108056;1279;27654;-70
2022/03/27 09:23:22;;;;;;;6.70;2.80;;;;;;;7.02;33.25;100249.41;108041;1279;22564;-69
2022/03/27 09:25:54;;;;;;;12.80;3.90;;;;;;;7.05;33.24;100246.93;108005;1279;22561;-69
2022/03/27 09:28:28;;;;;;;9.40;5.10;;;;;;;7.05;31.92;100241.89;108038;1279;22553;-72
2022/03/27 09:30:59;;;;;;;6.90;3.20;;;;;;;7.08;32.40;100239.90;108029;1279;24448;-72
2022/03/27 09:33:31;;;;;;;9.50;2.90;;;;;;;7.08;32.12;100234.88;108017;1279;22588;-69
2022/03/27 09:36:04;;;;;;;7.00;2.00;;;;;;;7.12;32.32;100233.23;108030;1279;22554;-70
2022/03/27 09:38:31;;;;;;;8.10;2.40;;;;;;;7.18;33.10;100237.56;108009;1279;22559;-69
2022/03/27 09:40:58;;;;;;;6.80;2.40;;;;;;;7.18;32.96;100235.14;108007;1279;22715;-68
2022/03/27 09:43:26;;;;;;;7.70;2.70;;;;;;;7.18;33.59;100229.77;108016;1279;22563;-70
2022/03/27 09:46:01;;;;;;;8.70;2.00;;;;;;;7.22;33.23;100223.79;108022;1279;22552;-69
2022/03/27 09:48:29;;;;;;;6.30;2.00;;;;;;;7.25;33.25;100220.59;107879;1279;23097;-71
2022/03/27 09:51:00;;;;;;;5.40;2.00;;;;;;;7.26;32.33;100220.38;108055;1279;22558;-74
2022/03/27 09:53:32;;;;;;;5.10;1.70;;;;;;;7.26;32.42;100217.29;108027;1279;26377;-75
2022/03/27 09:55:59;;;;;;;6.10;2.30;;;;;;;7.33;32.34;100220.37;108026;1279;22538;-70
2022/03/27 09:58:40;;;;;;;7.60;1.80;;;;;;;7.36;31.51;100220.10;108018;1279;22549;-71
2022/03/27 10:01:11;;;;;;;6.80;2.70;;;;;;;7.40;31.88;100217.94;108163;1278;22557;-71
2022/03/27 10:04:10;;;;;;;7.60;2.40;;;;;;;7.49;31.84;100214.38;108325;1279;22694;-70
2022/03/27 10:06:40;;;;;;;6.00;2.20;;;;;;;7.55;31.40;100211.26;108309;1279;22587;-71
2022/03/27 10:09:12;;;;;;;7.40;2.40;;;;;;;7.57;31.55;100210.69;108329;1279;22532;-71
2022/03/27 10:11:43;;;;;;;7.80;2.60;;;;;;;7.62;31.19;100208.13;108311;1279;24387;-70
2022/03/27 10:14:10;;;;;;;7.00;2.50;;;;;;;7.67;31.64;100208.34;108330;1279;24475;-70
2022/03/27 10:16:44;;;;;;;5.70;2.20;;;;;;;7.73;31.31;100203.98;108326;1279;22539;-70
2022/03/27 10:19:50;;;;;;;6.30;2.30;;;;;;;7.81;30.81;100200.80;108169;1279;25659;-71
2022/03/27 10:22:23;;;;;;;5.90;2.30;;;;;;;7.86;29.65;100202.06;108049;1279;22620;-71
2022/03/27 10:24:54;;;;;;;10.40;3.90;;;;;;;7.84;29.75;100197.95;108323;1279;22702;-71
2022/03/27 10:27:22;;;;;;;8.00;3.00;;;;;;;7.87;29.63;100199.95;108302;1279;26548;-70
2022/03/27 10:29:50;;;;;;;6.00;2.30;;;;;;;7.90;29.65;100193.94;108301;1279;22562;-71
2022/03/27 10:32:17;;;;;;;6.90;1.90;;;;;;;7.90;29.41;100192.55;108301;1279;22547;-73
2022/03/27 10:34:56;;;;;;;6.90;2.30;;;;;;;7.94;29.99;100185.00;108313;1279;22564;-72
2022/03/27 10:37:34;;;;;;;8.20;2.20;;;;;;;8.00;30.00;100180.31;108315;1279;22629;-72
2022/03/27 10:40:09;;;;;;;5.90;2.30;;;;;;;8.11;30.18;100178.39;108302;1279;22712;-73
2022/03/27 10:43:34;;;;;;;5.40;2.30;;;;;;;8.16;29.38;100172.16;108319;1279;22567;-72
2022/03/27 10:46:25;;;;;;;9.40;2.80;;;;;;;8.16;29.91;100169.73;107276;1287;22561;-78
2022/03/27 10:49:13;;;;;;;6.90;3.20;;;;;;;8.20;30.22;100164.24;107055;1287;22636;-73
2022/03/27 10:51:45;;;;;;;7.50;2.90;;;;;;;8.22;30.09;100160.55;107148;1287;22563;-70
2022/03/27 10:54:18;;;;;;;6.20;2.70;;;;;;;8.25;30.73;100152.63;107665;1286;25426;-73
2022/03/27 10:56:48;;;;;;;9.00;3.90;;;;;;;8.32;30.34;100151.55;107165;1287;22552;-72
2022/03/27 10:59:20;;;;;;;7.30;2.70;;;;;;;8.41;30.06;100152.13;107141;1287;22568;-73
2022/03/27 11:01:56;;;;;;;7.00;2.50;;;;;;;8.48;29.11;100154.70;107153;1286;23947;-76
2022/03/27 11:04:39;;;;;;;7.40;2.60;;;;;;;8.52;29.04;100149.35;107156;1287;22542;-71
2022/03/27 11:07:16;;;;;;;6.10;2.80;;;;;;;8.50;29.23;100148.91;107129;1287;26236;-72
2022/03/27 11:09:44;;;;;;;7.30;2.90;;;;;;;8.51;29.02;100145.23;107101;1287;22715;-73
2022/03/27 11:12:30;;;;;;;6.20;2.20;;;;;;;8.48;29.49;100144.80;107397;1287;22553;-75
2022/03/27 11:15:01;;;;;;;7.30;2.70;;;;;;;8.52;29.57;100138.23;107393;1287;22597;-77
2022/03/27 11:17:40;;;;;;;6.80;3.30;;;;;;;8.55;29.50;100132.59;107417;1287;22629;-77
2022/03/27 11:20:23;;;;;;;9.50;3.20;;;;;;;8.60;29.92;100128.94;107671;1279;22662;-76
2022/03/27 11:22:55;;;;;;;10.10;3.20;;;;;;;8.64;30.00;100128.45;108319;1279;22526;-76
2022/03/27 11:25:28;;;;;;;8.40;3.80;;;;;;;8.68;30.02;100125.20;108307;1279;24260;-73
2022/03/27 11:28:03;;;;;;;8.20;3.60;;;;;;;8.76;29.47;100124.20;108319;1279;22557;-74
2022/03/27 11:30:31;;;;;;;7.30;2.80;;;;;;;8.83;29.13;100124.71;108295;1279;22544;-75
2022/03/27 11:33:20;;;;;;;8.10;2.50;;;;;;;8.86;29.80;100125.64;108335;1279;22708;-77
2022/03/27 11:36:07;;;;;;;8.60;4.00;;;;;;;8.91;29.84;100117.11;108009;1279;22566;-71